Time;durP1;ratioP1;P1;durP2;ratioP2;P2;SDS_P1;SDS_P2;PMS_P1;PMS_P2;Temp;Humidity;BMP_temperature;BMP_pressure;BME280_temperature;BME280_humidity;BME280_pressure;Samples;Min_cycle;Max_cycle;Signal;HPM_P1;HPM_P2
2023/06/02 00:01:24;;;;;;;;;;;11.60;99.90;;;;;;5018857;28;19929;-73
2023/06/02 00:03:53;;;;;;;;;;;11.50;99.90;;;;;;5013623;28;19925;-73
2023/06/02 00:06:20;;;;;;;;;;;11.50;99.90;;;;;;5015422;28;20344;-74
2023/06/02 00:08:46;;;;;;;;;;;11.50;99.90;;;;;;5010406;28;19953;-73
2023/06/02 00:11:13;;;;;;;;;;;11.50;99.90;;;;;;5028774;28;20024;-73
2023/06/02 00:13:40;;;;;;;;;;;11.60;99.90;;;;;;5024430;28;20385;-74
2023/06/02 00:16:07;;;;;;;;;;;11.60;99.90;;;;;;5019542;28;19926;-74
2023/06/02 00:18:36;;;;;;;;;;;11.50;99.90;;;;;;5012929;28;19925;-74
2023/06/02 00:21:04;;;;;;;;;;;11.60;99.90;;;;;;5008998;28;19930;-73
2023/06/02 00:23:32;;;;;;;;;;;11.60;99.90;;;;;;5013835;28;20380;-73
2023/06/02 00:25:59;;;;;;;;;;;11.60;99.90;;;;;;5012963;28;19976;-73
2023/06/02 00:28:26;;;;;;;;;;;11.60;99.90;;;;;;5021183;28;19941;-73
2023/06/02 00:30:53;;;;;;;;;;;11.60;99.90;;;;;;5014987;28;19926;-73
2023/06/02 00:33:20;;;;;;;;;;;11.70;99.90;;;;;;5015370;28;20348;-73
2023/06/02 00:35:47;;;;;;;;;;;11.80;99.90;;;;;;5016641;28;19979;-73
2023/06/02 00:38:15;;;;;;;;;;;11.80;99.90;;;;;;5014231;28;20404;-73
2023/06/02 00:40:42;;;;;;;;;;;11.90;99.90;;;;;;5014017;28;19926;-73
2023/06/02 00:43:09;;;;;;;;;;;11.90;99.90;;;;;;5015871;28;19961;-74
2023/06/02 00:45:36;;;;;;;;;;;11.90;99.90;;;;;;5014256;28;19932;-73
2023/06/02 00:48:03;;;;;;;;;;;11.90;99.90;;;;;;5012628;28;20302;-73
2023/06/02 00:50:30;;;;;;;;;;;11.90;99.90;;;;;;5014821;28;19987;-73
2023/06/02 00:52:58;;;;;;;;;;;11.90;99.90;;;;;;5012229;28;19987;-74
2023/06/02 00:55:28;;;;;;;;;;;11.90;99.90;;;;;;5013375;28;19929;-73
2023/06/02 00:57:56;;;;;;;;;;;11.90;99.90;;;;;;5012321;28;19929;-73
2023/06/02 01:00:23;;;;;;;;;;;11.90;99.90;;;;;;5020588;28;19929;-71
2023/06/02 01:02:50;;;;;;;;;;;12.00;99.90;;;;;;5014455;28;19926;-74
2023/06/02 01:05:19;;;;;;;;;;;12.10;99.90;;;;;;5015000;28;20376;-71
2023/06/02 01:07:47;;;;;;;;;;;12.10;99.90;;;;;;5006554;28;19925;-74
2023/06/02 01:10:14;;;;;;;;;;;12.20;99.90;;;;;;5012571;28;19925;-74
2023/06/02 01:12:42;;;;;;;;;;;;;;;;;;5014904;28;20030;-75
2023/06/02 01:15:11;;;;;;;;;;;12.20;99.90;;;;;;5012691;28;19989;-75
2023/06/02 01:17:37;;;;;;;;;;;12.20;99.90;;;;;;5017045;28;19925;-74
2023/06/02 01:20:06;;;;;;;;;;;12.30;99.90;;;;;;5022220;28;19926;-75
2023/06/02 01:22:34;;;;;;;;;;;12.30;99.90;;;;;;5014679;28;19932;-75
2023/06/02 01:25:03;;;;;;;;;;;12.20;99.90;;;;;;5016290;28;19925;-74
2023/06/02 01:27:29;;;;;;;;;;;12.30;99.90;;;;;;5012599;28;19964;-75
2023/06/02 01:29:56;;;;;;;;;;;12.30;99.90;;;;;;5012986;28;20362;-74
2023/06/02 01:32:26;;;;;;;;;;;12.40;99.90;;;;;;5012752;28;20368;-74
2023/06/02 01:34:57;;;;;;;;;;;12.40;99.90;;;;;;5011345;28;20289;-73
2023/06/02 01:37:24;;;;;;;;;;;12.50;99.90;;;;;;5011429;28;19945;-74
2023/06/02 01:39:52;;;;;;;;;;;12.40;99.90;;;;;;5012283;28;19926;-74
2023/06/02 01:42:21;;;;;;;;;;;12.50;99.90;;;;;;5024707;28;19925;-73
2023/06/02 01:44:49;;;;;;;;;;;12.40;99.90;;;;;;5019698;28;19930;-73
2023/06/02 01:47:16;;;;;;;;;;;12.40;99.90;;;;;;5011973;28;19929;-75
2023/06/02 01:49:42;;;;;;;;;;;12.40;99.90;;;;;;5015548;28;19925;-75
2023/06/02 01:52:09;;;;;;;;;;;12.40;99.90;;;;;;5012934;28;20446;-74
2023/06/02 01:54:36;;;;;;;;;;;12.30;99.90;;;;;;5014825;28;19936;-74
2023/06/02 01:57:03;;;;;;;;;;;12.40;99.90;;;;;;5013568;28;19925;-75
2023/06/02 01:59:31;;;;;;;;;;;12.30;99.90;;;;;;5021554;28;20408;-75
2023/06/02 02:01:58;;;;;;;;;;;12.30;99.90;;;;;;5011026;28;19930;-75
2023/06/02 02:04:25;;;;;;;;;;;12.40;99.90;;;;;;5015835;28;19961;-74
2023/06/02 02:06:52;;;;;;;;;;;12.30;99.90;;;;;;5028681;28;19926;-74
2023/06/02 02:09:19;;;;;;;;;;;12.20;99.90;;;;;;5019304;28;19933;-75
2023/06/02 02:11:45;;;;;;;;;;;12.20;99.90;;;;;;5022733;28;20336;-75
2023/06/02 02:14:13;;;;;;;;;;;12.20;99.90;;;;;;5008607;28;20016;-75
2023/06/02 02:16:44;;;;;;;;;;;12.20;99.90;;;;;;5012306;28;20019;-74
2023/06/02 02:19:12;;;;;;;;;;;12.20;99.90;;;;;;5013297;28;19926;-73
2023/06/02 02:21:39;;;;;;;;;;;12.20;99.90;;;;;;5009827;28;19925;-75
2023/06/02 02:24:07;;;;;;;;;;;12.10;99.90;;;;;;5010611;28;19964;-72
2023/06/02 02:26:33;;;;;;;;;;;12.10;99.90;;;;;;5012173;28;19925;-75
2023/06/02 02:29:01;;;;;;;;;;;12.10;99.90;;;;;;5015731;28;19932;-74
2023/06/02 02:31:29;;;;;;;;;;;12.10;99.90;;;;;;5021336;28;19937;-75
2023/06/02 02:33:57;;;;;;;;;;;12.00;99.90;;;;;;5021729;28;19931;-74
2023/06/02 02:36:24;;;;;;;;;;;12.00;99.90;;;;;;5014069;28;19926;-74
2023/06/02 02:38:51;;;;;;;;;;;12.00;99.90;;;;;;5018362;28;19930;-73
2023/06/02 02:41:19;;;;;;;;;;;11.90;99.90;;;;;;5013964;28;19995;-75
2023/06/02 02:43:46;;;;;;;;;;;11.90;99.90;;;;;;5018630;28;19944;-74
2023/06/02 02:46:13;;;;;;;;;;;11.90;99.90;;;;;;5018577;28;20290;-75
2023/06/02 02:48:40;;;;;;;;;;;11.70;99.90;;;;;;5014456;28;19926;-74
2023/06/02 02:51:08;;;;;;;;;;;11.70;99.90;;;;;;5017165;28;20307;-75
2023/06/02 02:53:35;;;;;;;;;;;11.60;99.90;;;;;;5021641;28;20020;-75
2023/06/02 02:56:02;;;;;;;;;;;11.70;99.90;;;;;;5022273;28;19932;-75
2023/06/02 02:58:31;;;;;;;;;;;11.60;99.90;;;;;;5013109;28;19984;-75
2023/06/02 03:00:58;;;;;;;;;;;11.60;99.90;;;;;;5016177;28;20025;-75
2023/06/02 03:03:26;;;;;;;;;;;11.70;99.90;;;;;;5018269;28;20336;-74
2023/06/02 03:05:54;;;;;;;;;;;11.60;99.90;;;;;;5018053;28;19926;-74
2023/06/02 03:08:23;;;;;;;;;;;11.60;99.90;;;;;;5012001;28;20020;-74
2023/06/02 03:10:50;;;;;;;;;;;11.60;99.90;;;;;;5011909;28;20052;-74
2023/06/02 03:13:17;;;;;;;;;;;11.60;99.90;;;;;;5012042;28;20466;-74
2023/06/02 03:15:45;;;;;;;;;;;11.50;99.90;;;;;;5016406;28;19926;-73
2023/06/02 03:18:12;;;;;;;;;;;11.50;99.90;;;;;;5022254;28;19933;-75
2023/06/02 03:20:41;;;;;;;;;;;11.50;99.90;;;;;;5021367;28;19956;-74
2023/06/02 03:23:09;;;;;;;;;;;11.40;99.90;;;;;;5024330;28;19925;-74
2023/06/02 03:25:40;;;;;;;;;;;11.40;99.90;;;;;;5017234;28;19929;-74
2023/06/02 03:28:08;;;;;;;;;;;11.40;99.90;;;;;;5018025;28;19971;-74
2023/06/02 03:30:34;;;;;;;;;;;11.40;99.90;;;;;;5015216;28;19925;-74
2023/06/02 03:33:02;;;;;;;;;;;11.40;99.90;;;;;;5010050;28;19925;-74
2023/06/02 03:35:29;;;;;;;;;;;11.40;99.90;;;;;;5016334;28;19925;-74
2023/06/02 03:37:56;;;;;;;;;;;11.40;99.90;;;;;;5015713;28;20397;-73
2023/06/02 03:40:23;;;;;;;;;;;11.40;99.90;;;;;;5022212;28;20287;-72
2023/06/02 03:42:51;;;;;;;;;;;11.40;99.90;;;;;;5014905;28;20016;-75
2023/06/02 03:45:18;;;;;;;;;;;11.40;99.90;;;;;;5029095;28;19963;-74
2023/06/02 03:47:45;;;;;;;;;;;11.40;99.90;;;;;;5015702;28;19965;-72
2023/06/02 03:50:15;;;;;;;;;;;11.40;99.90;;;;;;5015511;28;19926;-75
2023/06/02 03:52:42;;;;;;;;;;;11.40;99.90;;;;;;5025059;28;19948;-74
2023/06/02 03:55:09;;;;;;;;;;;11.40;99.90;;;;;;5015769;28;19926;-74
2023/06/02 03:57:38;;;;;;;;;;;11.40;99.90;;;;;;5008084;28;19925;-75
2023/06/02 04:00:10;;;;;;;;;;;11.40;99.90;;;;;;5014549;28;19933;-74
2023/06/02 04:02:40;;;;;;;;;;;11.40;99.90;;;;;;5017397;28;20003;-76
2023/06/02 04:05:11;;;;;;;;;;;11.40;99.90;;;;;;5023953;28;20398;-74
2023/06/02 04:07:38;;;;;;;;;;;11.40;99.90;;;;;;5012190;28;19925;-75
2023/06/02 04:10:06;;;;;;;;;;;11.30;99.90;;;;;;5016086;28;19953;-75
2023/06/02 04:12:33;;;;;;;;;;;11.30;99.90;;;;;;5023810;28;19929;-74
2023/06/02 04:15:00;;;;;;;;;;;11.30;99.90;;;;;;5024808;28;19925;-75
2023/06/02 04:17:28;;;;;;;;;;;11.30;99.90;;;;;;5016056;28;20001;-75
2023/06/02 04:19:55;;;;;;;;;;;11.30;99.90;;;;;;5018677;28;19926;-74
2023/06/02 04:22:22;;;;;;;;;;;11.30;99.90;;;;;;5012837;28;20444;-76
2023/06/02 04:24:49;;;;;;;;;;;11.20;99.90;;;;;;5018133;28;20408;-76
2023/06/02 04:27:17;;;;;;;;;;;11.30;99.90;;;;;;5023612;28;20024;-76
2023/06/02 04:29:45;;;;;;;;;;;11.20;99.90;;;;;;5022754;28;19926;-76
2023/06/02 04:32:12;;;;;;;;;;;11.10;99.90;;;;;;5020631;28;19964;-71
2023/06/02 04:34:40;;;;;;;;;;;11.20;99.90;;;;;;5024305;28;19925;-72
2023/06/02 04:37:08;;;;;;;;;;;11.10;99.90;;;;;;5016488;28;19926;-73
2023/06/02 04:39:36;;;;;;;;;;;11.20;99.90;;;;;;5021719;28;20416;-72
2023/06/02 04:42:05;;;;;;;;;;;11.20;99.90;;;;;;5012914;28;19932;-72
2023/06/02 04:44:32;;;;;;;;;;;11.20;99.90;;;;;;5014415;28;19933;-72
2023/06/02 04:46:59;;;;;;;;;;;11.50;99.90;;;;;;5010296;28;19925;-72
2023/06/02 04:49:29;;;;;;;;;;;11.70;99.90;;;;;;5021570;28;19925;-73
2023/06/02 04:51:58;;;;;;;;;;;11.90;99.90;;;;;;5020482;28;19991;-73
2023/06/02 04:54:25;;;;;;;;;;;12.00;99.90;;;;;;5013249;28;19925;-74
2023/06/02 04:56:52;;;;;;;;;;;12.10;99.90;;;;;;5020116;28;19932;-74
2023/06/02 04:59:21;;;;;;;;;;;12.00;99.90;;;;;;5020026;28;19971;-73
2023/06/02 05:01:48;;;;;;;;;;;11.80;99.90;;;;;;5017344;28;19937;-73
2023/06/02 05:04:15;;;;;;;;;;;11.60;99.90;;;;;;5008539;28;19925;-74
2023/06/02 05:06:42;;;;;;;;;;;11.50;99.90;;;;;;5025262;28;19987;-73
2023/06/02 05:09:10;;;;;;;;;;;11.50;99.90;;;;;;5018673;28;19933;-71
2023/06/02 05:11:37;;;;;;;;;;;11.50;99.90;;;;;;5012287;28;20006;-74
2023/06/02 05:14:05;;;;;;;;;;;11.50;99.90;;;;;;5019770;28;20408;-74
2023/06/02 05:16:33;;;;;;;;;;;11.50;99.90;;;;;;5027208;28;19930;-74
2023/06/02 05:19:01;;;;;;;;;;;11.40;99.90;;;;;;5015042;28;19926;-74
2023/06/02 05:21:29;;;;;;;;;;;11.40;99.90;;;;;;5018665;28;19929;-73
2023/06/02 05:23:58;;;;;;;;;;;11.30;99.90;;;;;;5020685;28;19929;-72
2023/06/02 05:26:27;;;;;;;;;;;11.30;99.90;;;;;;5015225;28;19926;-72
2023/06/02 05:28:54;;;;;;;;;;;11.40;99.90;;;;;;5016373;28;19925;-73
2023/06/02 05:31:22;;;;;;;;;;;11.40;99.90;;;;;;5019185;28;19926;-74
2023/06/02 05:33:49;;;;;;;;;;;11.40;99.90;;;;;;5009701;28;19925;-74
2023/06/02 05:36:15;;;;;;;;;;;11.50;99.90;;;;;;5020305;28;19968;-73
2023/06/02 05:38:42;;;;;;;;;;;11.60;99.90;;;;;;5016115;28;19933;-73
2023/06/02 05:41:09;;;;;;;;;;;11.60;99.90;;;;;;5023115;28;20016;-73
2023/06/02 05:43:38;;;;;;;;;;;11.60;99.90;;;;;;5012701;28;20020;-73
2023/06/02 05:46:05;;;;;;;;;;;11.70;99.90;;;;;;5020653;28;19940;-74
2023/06/02 05:48:32;;;;;;;;;;;11.70;99.90;;;;;;5019941;28;20411;-74
2023/06/02 05:50:59;;;;;;;;;;;11.70;99.90;;;;;;5017610;28;19960;-73
2023/06/02 05:53:26;;;;;;;;;;;11.70;99.90;;;;;;5016996;28;20443;-73
2023/06/02 05:55:53;;;;;;;;;;;11.70;99.90;;;;;;5019763;28;20401;-73
2023/06/02 05:58:20;;;;;;;;;;;11.80;99.90;;;;;;5018356;28;19925;-74
2023/06/02 06:00:49;;;;;;;;;;;11.80;99.90;;;;;;5017658;28;20124;-74
2023/06/02 06:03:16;;;;;;;;;;;11.80;99.90;;;;;;5021990;28;19932;-74
2023/06/02 06:05:45;;;;;;;;;;;11.80;99.90;;;;;;5019476;28;19932;-73
2023/06/02 06:08:12;;;;;;;;;;;11.90;99.90;;;;;;5020248;28;19925;-74
2023/06/02 06:10:42;;;;;;;;;;;12.00;99.90;;;;;;5011093;28;19929;-73
2023/06/02 06:13:09;;;;;;;;;;;12.10;99.90;;;;;;5013633;28;19926;-74
2023/06/02 06:15:36;;;;;;;;;;;12.10;99.90;;;;;;5017528;28;19929;-73
2023/06/02 06:18:04;;;;;;;;;;;12.30;99.90;;;;;;5014024;28;19969;-74
2023/06/02 06:20:31;;;;;;;;;;;12.30;99.90;;;;;;5018522;28;19931;-74
2023/06/02 06:22:59;;;;;;;;;;;12.20;99.90;;;;;;5019693;28;19925;-74
2023/06/02 06:25:28;;;;;;;;;;;12.20;99.90;;;;;;5018008;28;19925;-73
2023/06/02 06:27:55;;;;;;;;;;;12.30;99.90;;;;;;5031434;28;19980;-74
2023/06/02 06:30:23;;;;;;;;;;;12.30;99.90;;;;;;5013538;28;19925;-73
2023/06/02 06:32:53;;;;;;;;;;;12.20;99.90;;;;;;5020758;28;19925;-73
2023/06/02 06:35:21;;;;;;;;;;;12.10;99.90;;;;;;5019040;28;19925;-73
2023/06/02 06:37:48;;;;;;;;;;;12.10;99.90;;;;;;5015015;28;19983;-73
2023/06/02 06:40:15;;;;;;;;;;;12.10;99.90;;;;;;5021735;28;20389;-73
2023/06/02 06:42:43;;;;;;;;;;;12.20;99.90;;;;;;5012575;28;19936;-72
2023/06/02 06:45:17;;;;;;;;;;;12.10;99.90;;;;;;5016690;28;19925;-73
2023/06/02 06:47:44;;;;;;;;;;;12.30;99.90;;;;;;5017107;28;19925;-74
2023/06/02 06:50:13;;;;;;;;;;;12.40;99.90;;;;;;5016666;28;19926;-73
2023/06/02 06:52:42;;;;;;;;;;;12.50;99.90;;;;;;5020549;28;19925;-74
2023/06/02 06:55:09;;;;;;;;;;;12.70;99.90;;;;;;5017952;28;20401;-74
2023/06/02 06:57:36;;;;;;;;;;;12.90;99.90;;;;;;5019906;28;19932;-73
2023/06/02 07:00:05;;;;;;;;;;;12.90;99.90;;;;;;5018553;28;19926;-74
2023/06/02 07:02:32;;;;;;;;;;;12.80;99.90;;;;;;5017885;28;19940;-73
2023/06/02 07:04:59;;;;;;;;;;;12.70;99.90;;;;;;5020443;28;19925;-73
2023/06/02 07:07:26;;;;;;;;;;;12.80;99.90;;;;;;5016310;28;19925;-73
2023/06/02 07:09:54;;;;;;;;;;;12.90;99.90;;;;;;5016662;28;19929;-73
2023/06/02 07:12:21;;;;;;;;;;;13.00;99.90;;;;;;5013697;28;19926;-72
2023/06/02 07:14:50;;;;;;;;;;;13.20;99.90;;;;;;5001640;28;19941;-74
2023/06/02 07:17:16;;;;;;;;;;;13.20;99.90;;;;;;5019991;28;20020;-73
2023/06/02 07:19:43;;;;;;;;;;;13.30;99.90;;;;;;5022427;28;19958;-75
2023/06/02 07:22:11;;;;;;;;;;;13.30;99.90;;;;;;5023161;28;19932;-74
2023/06/02 07:24:37;;;;;;;;;;;13.40;99.90;;;;;;5011337;28;19933;-75
2023/06/02 07:27:06;;;;;;;;;;;13.40;99.90;;;;;;5018801;28;19925;-73
2023/06/02 07:29:33;;;;;;;;;;;13.40;99.90;;;;;;5021783;28;19930;-74
2023/06/02 07:31:59;;;;;;;;;;;13.60;99.90;;;;;;5017873;28;19932;-73
2023/06/02 07:34:26;;;;;;;;;;;13.70;99.90;;;;;;5019696;28;19979;-74
2023/06/02 07:36:53;;;;;;;;;;;13.70;99.90;;;;;;5018856;28;19949;-74
2023/06/02 07:39:20;;;;;;;;;;;13.70;99.90;;;;;;5017637;28;19941;-73
2023/06/02 07:41:46;;;;;;;;;;;14.00;99.90;;;;;;5018300;28;19925;-74
2023/06/02 07:44:16;;;;;;;;;;;14.10;99.90;;;;;;5021288;28;19925;-73
2023/06/02 07:46:43;;;;;;;;;;;14.10;99.90;;;;;;5024281;28;19925;-73
2023/06/02 07:49:10;;;;;;;;;;;14.00;99.90;;;;;;5013578;28;19960;-74
2023/06/02 07:51:37;;;;;;;;;;;14.00;99.90;;;;;;5015277;28;19930;-75
2023/06/02 07:54:04;;;;;;;;;;;14.10;99.90;;;;;;5019568;28;20350;-73
2023/06/02 07:56:31;;;;;;;;;;;14.10;99.90;;;;;;5019676;28;19941;-74
2023/06/02 07:58:57;;;;;;;;;;;14.30;99.90;;;;;;5012135;28;19933;-75
2023/06/02 08:01:25;;;;;;;;;;;14.50;99.90;;;;;;5019390;28;19926;-73
2023/06/02 08:03:52;;;;;;;;;;;14.40;99.90;;;;;;5020207;28;19933;-74
2023/06/02 08:06:19;;;;;;;;;;;14.60;99.90;;;;;;5023991;28;19936;-73
2023/06/02 08:08:46;;;;;;;;;;;14.60;99.90;;;;;;5020136;28;19929;-74
2023/06/02 08:11:12;;;;;;;;;;;14.70;99.90;;;;;;5041164;28;19933;-72
2023/06/02 08:13:39;;;;;;;;;;;14.60;99.90;;;;;;5019814;28;19929;-74
2023/06/02 08:16:06;;;;;;;;;;;14.70;99.90;;;;;;5042808;28;19972;-74
2023/06/02 08:18:34;;;;;;;;;;;14.80;99.90;;;;;;5019263;28;19933;-74
2023/06/02 08:21:02;;;;;;;;;;;14.70;99.90;;;;;;5014394;28;19940;-73
2023/06/02 08:23:29;;;;;;;;;;;14.80;99.90;;;;;;5011605;28;19969;-74
2023/06/02 08:25:58;;;;;;;;;;;14.70;99.90;;;;;;5011502;28;20383;-74
2023/06/02 08:28:25;;;;;;;;;;;14.60;99.90;;;;;;5018583;28;19925;-73
2023/06/02 08:30:52;;;;;;;;;;;14.60;99.90;;;;;;5012603;28;19925;-74
2023/06/02 08:33:21;;;;;;;;;;;14.50;99.90;;;;;;5024896;28;19936;-74
2023/06/02 08:35:50;;;;;;;;;;;14.60;99.90;;;;;;5019668;28;19936;-74
2023/06/02 08:38:17;;;;;;;;;;;14.60;99.90;;;;;;5018166;28;20417;-74
2023/06/02 08:40:46;;;;;;;;;;;14.80;99.90;;;;;;5023098;28;19929;-73
2023/06/02 08:43:14;;;;;;;;;;;14.80;99.90;;;;;;5018191;28;19971;-73
2023/06/02 08:45:41;;;;;;;;;;;14.80;99.90;;;;;;5019896;28;19925;-73
2023/06/02 08:48:08;;;;;;;;;;;14.90;99.90;;;;;;5018725;28;20397;-75
2023/06/02 08:50:36;;;;;;;;;;;14.80;99.90;;;;;;5017880;28;19933;-74
2023/06/02 08:53:05;;;;;;;;;;;15.00;99.90;;;;;;5012616;28;19926;-72
2023/06/02 08:55:32;;;;;;;;;;;15.10;99.90;;;;;;5012512;28;19932;-74
2023/06/02 08:57:59;;;;;;;;;;;15.30;99.90;;;;;;5016662;28;19925;-74
2023/06/02 09:00:26;;;;;;;;;;;15.40;99.90;;;;;;5018443;28;19937;-74
2023/06/02 09:02:53;;;;;;;;;;;15.20;99.90;;;;;;5020937;28;19929;-74
2023/06/02 09:05:20;;;;;;;;;;;15.00;99.90;;;;;;5018158;28;19933;-74
2023/06/02 09:07:47;;;;;;;;;;;14.80;99.90;;;;;;5017907;28;19929;-74
2023/06/02 09:10:29;;;;;;;;;;;14.80;99.90;;;;;;5016299;28;19929;-74
2023/06/02 09:12:56;;;;;;;;;;;14.80;99.90;;;;;;5016447;28;19935;-74
2023/06/02 09:15:24;;;;;;;;;;;14.70;99.90;;;;;;5011595;28;20388;-74
2023/06/02 09:17:51;;;;;;;;;;;14.80;99.90;;;;;;5021009;28;19934;-74
2023/06/02 09:20:18;;;;;;;;;;;14.80;99.90;;;;;;5013628;28;20381;-74
2023/06/02 09:22:55;;;;;;;;;;;14.70;99.90;;;;;;5020013;28;20358;-75
2023/06/02 09:25:22;;;;;;;;;;;15.10;99.90;;;;;;5016646;28;20474;-73
2023/06/02 09:27:54;;;;;;;;;;;15.40;99.90;;;;;;5020618;28;20028;-73
2023/06/02 09:30:20;;;;;;;;;;;15.40;99.90;;;;;;5020559;28;19932;-74
2023/06/02 09:32:55;;;;;;;;;;;15.80;99.90;;;;;;5007039;28;19933;-74
2023/06/02 09:35:35;;;;;;;;;;;16.00;99.90;;;;;;5021845;28;19968;-75
2023/06/02 09:38:02;;;;;;;;;;;16.10;99.90;;;;;;5022104;28;20369;-74
2023/06/02 09:40:29;;;;;;;;;;;16.20;99.90;;;;;;5022231;28;19925;-74
2023/06/02 09:42:57;;;;;;;;;;;16.20;99.90;;;;;;5010279;28;20320;-75
2023/06/02 09:45:24;;;;;;;;;;;16.10;99.90;;;;;;5022965;28;19925;-71
2023/06/02 09:47:51;;;;;;;;;;;16.30;99.90;;;;;;5016787;28;19925;-75
2023/06/02 09:50:34;;;;;;;;;;;16.50;99.90;;;;;;5017142;28;19969;-72
2023/06/02 09:53:02;;;;;;;;;;;16.70;99.90;;;;;;5018861;28;20467;-72
2023/06/02 09:55:29;;;;;;;;;;;16.60;99.90;;;;;;5010837;28;19965;-74
2023/06/02 09:57:58;;;;;;;;;;;16.50;99.90;;;;;;5020243;28;20397;-73
2023/06/02 10:00:25;;;;;;;;;;;16.60;99.90;;;;;;5018402;28;19932;-73
2023/06/02 10:02:52;;;;;;;;;;;16.90;99.90;;;;;;5016063;28;20336;-73
2023/06/02 10:05:20;;;;;;;;;;;16.50;99.90;;;;;;5014825;28;19937;-74
2023/06/02 10:07:52;;;;;;;;;;;16.60;99.90;;;;;;5019909;28;19925;-73
2023/06/02 10:10:23;;;;;;;;;;;16.80;99.90;;;;;;5018221;28;20350;-74
2023/06/02 10:13:20;;;;;;;;;;;16.70;99.90;;;;;;5016377;28;19925;-72
2023/06/02 10:15:55;;;;;;;;;;;16.90;99.90;;;;;;4952378;28;20361;-73
2023/06/02 10:18:32;;;;;;;;;;;17.00;99.90;;;;;;5001155;28;19925;-73
2023/06/02 10:21:04;;;;;;;;;;;17.10;99.90;;;;;;5021610;28;19925;-75
2023/06/02 10:23:37;;;;;;;;;;;17.20;99.90;;;;;;5010158;28;19933;-73
2023/06/02 10:26:16;;;;;;;;;;;17.40;99.90;;;;;;5017899;28;19932;-73
2023/06/02 10:28:43;;;;;;;;;;;17.70;99.90;;;;;;5009974;28;19925;-74
2023/06/02 10:31:12;;;;;;;;;;;17.30;99.90;;;;;;5008573;28;19929;-75
2023/06/02 10:33:43;;;;;;;;;;;17.30;99.90;;;;;;5017966;28;19925;-74
2023/06/02 10:36:12;;;;;;;;;;;17.80;99.90;;;;;;5017092;28;19968;-75
2023/06/02 10:38:39;;;;;;;;;;;17.90;99.90;;;;;;5010342;28;19925;-74
2023/06/02 10:41:06;;;;;;;;;;;17.90;99.90;;;;;;5014383;28;19925;-74
2023/06/02 10:43:33;;;;;;;;;;;17.80;99.90;;;;;;5019557;28;20029;-74
2023/06/02 10:46:17;;;;;;;;;;;17.40;99.90;;;;;;5014912;28;19983;-75
2023/06/02 10:48:44;;;;;;;;;;;17.50;99.90;;;;;;5017186;28;20028;-74
2023/06/02 10:51:12;;;;;;;;;;;17.70;99.90;;;;;;5022749;28;19929;-74
2023/06/02 10:53:57;;;;;;;;;;;17.70;99.90;;;;;;5011658;28;19971;-74
2023/06/02 10:56:40;;;;;;;;;;;17.70;99.90;;;;;;5015441;28;19987;-73
2023/06/02 10:59:07;;;;;;;;;;;17.90;99.90;;;;;;5021513;28;19971;-73
2023/06/02 11:01:48;;;;;;;;;;;17.80;99.90;;;;;;5015290;28;19929;-73
2023/06/02 11:04:23;;;;;;;;;;;17.90;99.90;;;;;;5016459;28;19930;-73
2023/06/02 11:07:12;;;;;;;;;;;18.00;99.90;;;;;;5026085;28;19925;-73
2023/06/02 11:09:42;;;;;;;;;;;18.20;99.90;;;;;;5013267;28;19932;-73
2023/06/02 11:12:09;;;;;;;;;;;18.20;99.90;;;;;;5019518;28;20304;-74
2023/06/02 11:14:51;;;;;;;;;;;18.00;99.90;;;;;;5020990;28;20393;-75
2023/06/02 11:17:32;;;;;;;;;;;18.30;99.90;;;;;;5021429;28;19925;-73
2023/06/02 11:19:59;;;;;;;;;;;18.60;99.90;;;;;;5022959;28;19936;-74
2023/06/02 11:22:26;;;;;;;;;;;18.80;99.90;;;;;;5026518;28;19980;-72
2023/06/02 11:24:53;;;;;;;;;;;18.90;99.90;;;;;;5013982;28;20420;-73
2023/06/02 11:27:21;;;;;;;;;;;18.80;99.90;;;;;;5017510;28;19944;-73
2023/06/02 11:30:02;;;;;;;;;;;19.00;99.90;;;;;;5013471;28;19925;-73
2023/06/02 11:32:29;;;;;;;;;;;19.40;99.90;;;;;;5013080;28;19936;-73
2023/06/02 11:35:01;;;;;;;;;;;19.60;99.90;;;;;;5016167;28;19932;-73
2023/06/02 11:37:28;;;;;;;;;;;19.70;99.90;;;;;;5020472;28;19932;-74
2023/06/02 11:39:55;;;;;;;;;;;20.20;99.90;;;;;;5017187;28;19925;-74
2023/06/02 11:42:32;;;;;;;;;;;21.50;99.90;;;;;;5012320;28;20385;-75
2023/06/02 11:44:59;;;;;;;;;;;22.90;99.90;;;;;;5017439;28;19962;-74
2023/06/02 11:47:26;;;;;;;;;;;24.30;99.90;;;;;;5015022;28;19971;-75
2023/06/02 11:49:53;;;;;;;;;;;25.10;99.90;;;;;;5019632;28;19934;-76
2023/06/02 11:52:21;;;;;;;;;;;25.60;99.90;;;;;;5013726;28;19983;-74
2023/06/02 11:54:51;;;;;;;;;;;26.70;99.90;;;;;;5017782;28;19931;-72
2023/06/02 11:57:28;;;;;;;;;;;27.30;99.90;;;;;;5021178;28;19933;-74
2023/06/02 12:00:09;;;;;;;;;;;26.90;99.90;;;;;;5010848;28;19961;-75
2023/06/02 12:02:36;;;;;;;;;;;26.90;99.90;;;;;;5020475;28;19926;-73
2023/06/02 12:05:03;;;;;;;;;;;26.30;99.90;;;;;;5020918;28;19929;-75
2023/06/02 12:07:31;;;;;;;;;;;27.50;99.90;;;;;;5027828;28;19932;-73
2023/06/02 12:09:58;;;;;;;;;;;28.10;99.90;;;;;;5020793;28;19925;-75
2023/06/02 12:12:25;;;;;;;;;;;27.90;99.90;;;;;;5011863;28;19932;-75
2023/06/02 12:14:52;;;;;;;;;;;28.60;99.90;;;;;;5018220;28;19926;-74
2023/06/02 12:17:18;;;;;;;;;;;28.10;99.90;;;;;;5012095;28;19926;-74
2023/06/02 12:19:56;;;;;;;;;;;27.90;99.90;;;;;;5024188;28;19925;-74
2023/06/02 12:22:23;;;;;;;;;;;28.10;99.90;;;;;;5027588;28;19926;-75
2023/06/02 12:24:51;;;;;;;;;;;27.70;99.90;;;;;;5016671;28;19925;-74
2023/06/02 12:27:22;;;;;;;;;;;27.70;99.90;;;;;;5018532;28;19971;-76
2023/06/02 12:29:50;;;;;;;;;;;27.80;99.90;;;;;;5021099;28;20116;-74
2023/06/02 12:32:25;;;;;;;;;;;28.80;99.90;;;;;;5019169;28;20351;-74
2023/06/02 12:34:52;;;;;;;;;;;29.00;99.90;;;;;;5015874;28;20293;-73
2023/06/02 12:37:18;;;;;;;;;;;28.10;99.90;;;;;;5014432;28;19925;-76
2023/06/02 12:39:45;;;;;;;;;;;27.50;99.90;;;;;;5021593;28;19933;-76
2023/06/02 12:42:16;;;;;;;;;;;27.60;99.90;;;;;;5021029;28;19932;-76
2023/06/02 12:44:43;;;;;;;;;;;28.00;99.90;;;;;;5018134;28;20032;-76
2023/06/02 12:47:10;;;;;;;;;;;28.00;99.90;;;;;;5016636;28;19929;-76
2023/06/02 12:49:38;;;;;;;;;;;27.80;99.90;;;;;;5014281;28;20015;-76
2023/06/02 12:52:05;;;;;;;;;;;28.80;99.90;;;;;;5017297;28;19929;-76
2023/06/02 12:54:32;;;;;;;;;;;29.30;99.90;;;;;;5018681;28;19934;-76
2023/06/02 12:56:58;;;;;;;;;;;29.40;99.90;;;;;;5021257;28;19936;-74
2023/06/02 12:59:27;;;;;;;;;;;30.00;99.90;;;;;;5012906;28;19925;-75
2023/06/02 13:01:53;;;;;;;;;;;30.20;99.90;;;;;;5022792;28;19940;-76
2023/06/02 13:04:21;;;;;;;;;;;30.50;99.90;;;;;;5013069;28;19929;-75
2023/06/02 13:06:47;;;;;;;;;;;29.50;99.90;;;;;;5016839;28;19926;-76
2023/06/02 13:09:14;;;;;;;;;;;28.80;99.90;;;;;;5018936;28;19929;-76
2023/06/02 13:11:42;;;;;;;;;;;28.90;99.90;;;;;;5023390;28;19937;-74
2023/06/02 13:14:10;;;;;;;;;;;29.30;99.90;;;;;;5014631;28;20325;-76
2023/06/02 13:16:38;;;;;;;;;;;29.30;99.90;;;;;;5018180;28;19951;-76
2023/06/02 13:19:05;;;;;;;;;;;28.70;99.90;;;;;;5015180;28;19941;-76
2023/06/02 13:21:33;;;;;;;;;;;28.40;99.90;;;;;;5017636;28;19929;-76
2023/06/02 13:23:59;;;;;;;;;;;29.50;99.90;;;;;;5018987;28;20388;-75
2023/06/02 13:26:27;;;;;;;;;;;29.50;99.90;;;;;;5018825;28;19995;-77
2023/06/02 13:29:02;;;;;;;;;;;29.40;99.90;;;;;;5104245;27;19923;-75
2023/06/02 13:31:29;;;;;;;;;;;30.00;99.90;;;;;;5103769;28;19931;-75
2023/06/02 13:33:55;;;;;;;;;;;30.70;99.90;;;;;;5096160;28;19949;-75
2023/06/02 13:36:22;;;;;;;;;;;30.80;99.90;;;;;;5093529;28;19924;-75
2023/06/02 13:38:49;;;;;;;;;;;31.70;99.90;;;;;;5093128;28;19924;-76
2023/06/02 13:41:16;;;;;;;;;;;32.30;99.90;;;;;;5098011;28;19924;-77
2023/06/02 13:43:43;;;;;;;;;;;31.00;99.90;;;;;;5092754;28;20327;-76
2023/06/02 13:46:11;;;;;;;;;;;29.90;99.90;;;;;;5093458;28;19924;-76
2023/06/02 13:48:38;;;;;;;;;;;29.60;99.90;;;;;;5093138;28;20332;-76
2023/06/02 13:51:06;;;;;;;;;;;29.60;99.90;;;;;;5093852;28;20009;-75
2023/06/02 13:53:33;;;;;;;;;;;29.40;99.90;;;;;;5098312;28;19963;-76
2023/06/02 13:56:00;;;;;;;;;;;29.70;99.90;;;;;;5091632;28;19973;-74
2023/06/02 13:58:29;;;;;;;;;;;29.80;99.90;;;;;;5100014;28;19977;-75
2023/06/02 14:00:56;;;;;;;;;;;30.10;99.90;;;;;;5099980;28;19924;-76
2023/06/02 14:03:24;;;;;;;;;;;30.00;99.90;;;;;;5094636;28;19947;-76
2023/06/02 14:05:51;;;;;;;;;;;29.80;99.90;;;;;;5103611;28;19928;-75
2023/06/02 14:08:18;;;;;;;;;;;30.20;99.90;;;;;;5096693;28;19928;-76
2023/06/02 14:10:45;;;;;;;;;;;30.70;99.90;;;;;;5093021;28;20353;-76
2023/06/02 14:13:11;;;;;;;;;;;31.40;99.90;;;;;;5093164;28;19928;-73
2023/06/02 14:15:38;;;;;;;;;;;31.00;99.90;;;;;;5091378;28;19931;-75
2023/06/02 14:18:05;;;;;;;;;;;30.40;99.90;;;;;;5093399;28;19931;-76
2023/06/02 14:20:33;;;;;;;;;;;30.70;99.90;;;;;;5089573;28;19925;-76
2023/06/02 14:23:00;;;;;;;;;;;30.70;99.90;;;;;;5097762;28;20378;-74
2023/06/02 14:25:27;;;;;;;;;;;31.30;99.90;;;;;;5102657;28;19928;-76